createdAt,value
2017-11-09T00:00:51.137Z,38.70
2017-11-09T00:05:59.037Z,36.63
2017-11-09T00:08:26.620Z,39.20
2017-11-09T00:10:54.959Z,39.43
2017-11-09T00:13:22.909Z,39.83
2017-11-09T00:15:51.324Z,39.10
2017-11-09T00:18:19.128Z,38.53
2017-11-09T00:20:47.475Z,38.00
2017-11-09T00:23:15.091Z,37.03
2017-11-09T00:25:42.650Z,36.73
2017-11-09T00:28:10.227Z,37.67
2017-11-09T00:30:37.809Z,38.40
2017-11-09T00:33:05.399Z,36.50
2017-11-09T00:35:33.737Z,38.07
2017-11-09T00:38:01.332Z,35.63
2017-11-09T00:40:29.682Z,34.90
2017-11-09T00:42:57.280Z,35.03
2017-11-09T00:45:25.616Z,34.37
2017-11-09T00:47:53.451Z,38.37
2017-11-09T00:50:21.024Z,36.90
2017-11-09T00:52:48.616Z,37.60
2017-11-09T00:55:16.383Z,37.20
2017-11-09T00:57:44.043Z,36.57
2017-11-09T01:00:11.716Z,38.10
2017-11-09T01:02:39.295Z,38.00
2017-11-09T01:05:08.029Z,36.77
2017-11-09T01:07:35.612Z,39.43
2017-11-09T01:10:03.193Z,39.37
2017-11-09T01:12:30.763Z,37.33
2017-11-09T01:14:58.360Z,39.33
2017-11-09T01:17:25.968Z,36.50
2017-11-09T01:19:53.638Z,39.13
2017-11-09T01:22:21.236Z,35.83
2017-11-09T01:24:48.811Z,37.93
2017-11-09T01:27:16.411Z,37.50
2017-11-09T01:29:44.024Z,36.07
2017-11-09T01:32:12.343Z,36.30
2017-11-09T01:34:39.928Z,37.50
2017-11-09T01:37:07.537Z,37.30
2017-11-09T01:39:35.121Z,38.23
2017-11-09T01:42:02.716Z,38.93
2017-11-09T01:44:31.093Z,39.80
2017-11-09T01:46:59.462Z,38.47
2017-11-09T01:49:27.035Z,38.30
2017-11-09T01:51:54.604Z,35.93
2017-11-09T01:54:23.454Z,37.43
2017-11-09T01:56:51.032Z,36.37
2017-11-09T01:59:19.784Z,39.37
2017-11-09T02:01:47.364Z,39.67
2017-11-09T02:04:14.996Z,37.93
2017-11-09T02:06:42.555Z,39.00
2017-11-09T02:09:10.155Z,38.03
2017-11-09T02:11:37.747Z,37.20
2017-11-09T02:14:06.171Z,35.80
2017-11-09T02:16:33.752Z,37.97
2017-11-09T02:19:01.592Z,37.40
2017-11-09T02:21:29.171Z,37.77
2017-11-09T02:23:56.742Z,38.63
2017-11-09T02:26:24.641Z,36.97
2017-11-09T02:38:37.236Z,36.50
2017-11-09T02:41:05.567Z,38.60
2017-11-09T02:43:33.187Z,37.10
2017-11-09T02:46:00.755Z,40.07
2017-11-09T02:48:28.348Z,38.00
2017-11-09T02:50:55.910Z,36.80
2017-11-09T02:53:23.489Z,40.80
2017-11-09T02:55:51.071Z,39.73
2017-11-09T02:58:19.401Z,36.97
2017-11-09T03:00:46.995Z,38.90
2017-11-09T03:03:14.557Z,38.17
2017-11-09T03:05:42.383Z,39.77
2017-11-09T03:08:10.123Z,36.23
2017-11-09T03:10:38.006Z,37.80
2017-11-09T03:13:05.622Z,38.00
2017-11-09T03:15:33.472Z,38.00
2017-11-09T03:18:01.096Z,38.27
2017-11-09T03:20:28.663Z,39.57
2017-11-09T03:22:56.222Z,38.53
2017-11-09T03:25:23.887Z,36.93
2017-11-09T03:27:51.464Z,39.20
2017-11-09T03:30:19.040Z,39.30
2017-11-09T03:32:46.634Z,39.93
2017-11-09T03:35:14.975Z,37.70
2017-11-09T03:37:42.577Z,38.60
2017-11-09T03:40:10.938Z,39.27
2017-11-09T03:42:38.521Z,39.00
2017-11-09T03:45:06.843Z,38.70
2017-11-09T03:47:34.421Z,38.80
2017-11-09T03:50:02.296Z,37.03
2017-11-09T03:52:30.324Z,38.10
2017-11-09T03:54:57.888Z,36.17
2017-11-09T03:57:25.660Z,36.70
2017-11-09T03:59:53.235Z,38.97
2017-11-09T04:02:20.840Z,37.73
2017-11-09T04:04:49.203Z,40.50
2017-11-09T04:07:16.964Z,38.37
2017-11-09T04:09:44.563Z,37.43
2017-11-09T04:12:12.138Z,39.20
2017-11-09T04:14:39.702Z,38.80
2017-11-09T04:17:07.300Z,38.93
2017-11-09T04:19:34.903Z,39.50
2017-11-09T04:22:03.244Z,35.77
2017-11-09T04:24:31.595Z,39.60
2017-11-09T04:26:59.199Z,39.77
2017-11-09T04:29:27.545Z,38.80
2017-11-09T04:31:55.356Z,40.10
2017-11-09T04:34:23.702Z,37.40
2017-11-09T04:36:51.289Z,37.73
2017-11-09T04:39:18.877Z,35.93
2017-11-09T04:41:46.535Z,36.90
2017-11-09T04:44:14.177Z,40.10
2017-11-09T04:46:48.418Z,39.23
2017-11-09T04:49:15.992Z,36.43
2017-11-09T04:51:43.655Z,38.50
2017-11-09T04:54:11.250Z,39.43
2017-11-09T04:56:38.828Z,36.80
2017-11-09T04:59:06.428Z,37.00
2017-11-09T05:01:34.543Z,37.03
2017-11-09T05:04:02.581Z,38.70
2017-11-09T05:06:30.583Z,37.70
2017-11-09T05:08:58.234Z,37.87
2017-11-09T05:11:25.872Z,39.70
2017-11-09T05:13:53.440Z,39.43
2017-11-09T05:16:21.330Z,36.47
2017-11-09T05:18:48.932Z,39.20
2017-11-09T05:21:17.284Z,42.37
2017-11-09T05:23:44.880Z,42.00
2017-11-09T05:26:13.221Z,39.60
2017-11-09T05:28:40.840Z,37.83
2017-11-09T05:31:08.431Z,39.10
2017-11-09T05:33:36.013Z,37.73
2017-11-09T05:36:03.585Z,38.87
2017-11-09T05:38:31.181Z,40.00
2017-11-09T05:40:58.788Z,37.37
2017-11-09T05:43:26.355Z,38.27
2017-11-09T05:45:53.955Z,39.13
2017-11-09T05:48:22.279Z,39.67
2017-11-09T05:50:50.008Z,40.20
2017-11-09T05:53:17.604Z,38.30
2017-11-09T05:55:45.195Z,38.93
2017-11-09T05:58:12.787Z,37.70
2017-11-09T06:00:41.223Z,38.40
2017-11-09T06:03:08.833Z,39.30
2017-11-09T06:05:36.411Z,37.80
2017-11-09T06:08:03.989Z,35.97
2017-11-09T06:10:31.643Z,39.07
2017-11-09T06:12:59.247Z,37.10
2017-11-09T06:15:26.841Z,37.07
2017-11-09T06:17:54.427Z,37.83
2017-11-09T06:20:22.156Z,37.90
2017-11-09T06:22:49.733Z,39.30
2017-11-09T06:25:17.314Z,34.63
2017-11-09T06:27:44.909Z,37.17
2017-11-09T06:30:12.834Z,37.80
2017-11-09T06:32:40.423Z,38.50
2017-11-09T06:35:08.011Z,37.10
2017-11-09T06:37:36.377Z,36.43
2017-11-09T06:40:04.063Z,38.30
2017-11-09T06:42:32.402Z,33.57
2017-11-09T06:45:00.727Z,34.80
2017-11-09T06:47:29.112Z,35.73
2017-11-09T06:49:57.443Z,37.23
2017-11-09T06:52:25.029Z,39.70
2017-11-09T06:54:52.636Z,35.07
2017-11-09T06:57:20.220Z,36.00
2017-11-09T06:59:48.059Z,37.33
2017-11-09T07:02:15.660Z,37.87
2017-11-09T07:04:43.507Z,37.27
2017-11-09T07:07:11.866Z,36.50
2017-11-09T07:09:39.657Z,35.77
2017-11-09T07:12:07.237Z,36.90
2017-11-09T07:14:34.803Z,34.87
2017-11-09T07:17:02.618Z,33.13
2017-11-09T07:19:30.208Z,36.60
2017-11-09T07:21:57.790Z,36.90
2017-11-09T07:24:25.367Z,34.17
2017-11-09T07:26:53.852Z,34.77
2017-11-09T07:29:22.194Z,36.07
2017-11-09T07:31:50.032Z,35.47
2017-11-09T07:34:17.768Z,37.10
2017-11-09T07:36:46.175Z,35.40
2017-11-09T07:39:17.932Z,35.03
2017-11-09T07:41:45.498Z,36.00
2017-11-09T07:44:13.087Z,34.13
2017-11-09T07:46:40.691Z,36.80
2017-11-09T07:49:09.031Z,36.00
2017-11-09T07:51:36.603Z,35.13
2017-11-09T07:54:04.183Z,33.33
2017-11-09T07:56:32.528Z,32.70
2017-11-09T07:59:00.117Z,35.37
2017-11-09T08:01:27.679Z,35.40
2017-11-09T08:03:56.017Z,33.60
2017-11-09T08:06:23.604Z,35.40
2017-11-09T08:08:51.191Z,35.00
2017-11-09T08:11:19.817Z,34.00
2017-11-09T08:13:47.399Z,35.07
2017-11-09T08:16:14.980Z,36.23
2017-11-09T08:18:42.563Z,36.37
2017-11-09T08:21:10.923Z,35.60
2017-11-09T08:23:38.482Z,33.80
2017-11-09T08:26:08.304Z,37.03
2017-11-09T08:28:37.928Z,34.90
2017-11-09T08:31:06.964Z,37.50
2017-11-09T08:33:35.158Z,35.40
2017-11-09T08:36:03.055Z,36.33
2017-11-09T08:38:31.396Z,36.07
2017-11-09T08:40:58.986Z,33.67
2017-11-09T08:43:26.586Z,37.50
2017-11-09T08:45:54.186Z,35.70
2017-11-09T08:48:21.795Z,36.23
2017-11-09T08:50:49.404Z,37.00
2017-11-09T08:53:16.987Z,33.63
2017-11-09T08:55:44.567Z,34.30
2017-11-09T08:58:12.943Z,34.20
2017-11-09T09:00:41.296Z,34.73
2017-11-09T09:03:08.879Z,34.37
2017-11-09T09:05:36.510Z,33.07
2017-11-09T09:08:04.103Z,34.77
2017-11-09T09:10:32.523Z,34.47
2017-11-09T09:13:00.086Z,34.73
2017-11-09T09:15:27.668Z,32.47
2017-11-09T09:17:55.227Z,33.83
2017-11-09T09:20:27.787Z,33.63
2017-11-09T09:22:55.382Z,32.87
2017-11-09T09:25:29.401Z,35.83
2017-11-09T09:27:59.463Z,34.73
2017-11-09T09:30:28.078Z,33.23
2017-11-09T09:32:58.623Z,35.07
2017-11-09T09:35:40.072Z,34.70
2017-11-09T09:38:11.636Z,36.23
2017-11-09T09:40:40.763Z,35.33
2017-11-09T09:43:08.372Z,34.47
2017-11-09T09:45:36.080Z,31.57
2017-11-09T09:48:03.688Z,37.00
2017-11-09T09:50:32.020Z,31.53
2017-11-09T09:52:59.618Z,33.77
2017-11-09T09:55:28.035Z,34.10
2017-11-09T09:57:56.320Z,32.43
2017-11-09T10:00:23.918Z,30.27
2017-11-09T10:02:51.487Z,31.53
2017-11-09T10:05:19.059Z,31.60
2017-11-09T10:07:47.457Z,32.60
2017-11-09T10:10:15.029Z,31.43
2017-11-09T10:12:42.600Z,31.20
2017-11-09T10:15:10.198Z,30.73
2017-11-09T10:17:37.775Z,31.80
2017-11-09T10:20:05.359Z,32.10
2017-11-09T10:22:32.967Z,29.90
2017-11-09T10:25:00.547Z,29.03
2017-11-09T10:27:28.136Z,28.70
2017-11-09T10:30:00.967Z,31.30
2017-11-09T10:32:31.570Z,27.13
2017-11-09T10:34:59.191Z,28.37
2017-11-09T10:37:26.789Z,28.10
2017-11-09T10:39:55.123Z,27.13
2017-11-09T10:42:22.731Z,25.20
2017-11-09T10:44:50.301Z,27.47
2017-11-09T10:47:17.903Z,28.03
2017-11-09T10:49:45.515Z,29.80
2017-11-09T10:52:13.263Z,27.33
2017-11-09T10:54:41.597Z,27.87
2017-11-09T10:57:09.201Z,29.00
2017-11-09T10:59:37.553Z,28.07
2017-11-09T11:02:05.124Z,26.83
2017-11-09T11:04:32.710Z,27.47
2017-11-09T11:07:01.067Z,26.57
2017-11-09T11:09:28.651Z,27.80
2017-11-09T11:11:57.010Z,29.00
2017-11-09T11:14:24.627Z,28.70
2017-11-09T11:16:52.210Z,28.40
2017-11-09T11:19:19.825Z,27.87
2017-11-09T11:21:50.163Z,30.03
2017-11-09T11:24:17.752Z,27.50
2017-11-09T11:26:45.327Z,32.83
2017-11-09T11:29:12.943Z,30.07
2017-11-09T11:31:40.535Z,31.30
2017-11-09T11:34:08.140Z,29.63
2017-11-09T11:36:36.487Z,30.73
2017-11-09T11:39:04.051Z,30.67
2017-11-09T11:41:31.655Z,29.43
2017-11-09T11:43:59.976Z,30.90
2017-11-09T11:46:27.551Z,31.93
2017-11-09T11:48:55.142Z,30.93
2017-11-09T11:51:23.491Z,29.40
2017-11-09T11:53:51.931Z,26.03
2017-11-09T11:56:19.527Z,26.53
2017-11-09T11:58:47.107Z,25.20
2017-11-09T12:01:14.711Z,25.10
2017-11-09T12:03:47.174Z,22.50
2017-11-09T12:06:14.776Z,25.00
2017-11-09T12:08:44.352Z,24.87
2017-11-09T12:11:11.948Z,23.20
2017-11-09T12:13:39.546Z,23.30
2017-11-09T12:16:07.906Z,22.70
2017-11-09T12:18:35.533Z,24.23
2017-11-09T12:21:03.146Z,23.27
2017-11-09T12:23:31.534Z,24.00
2017-11-09T12:25:59.888Z,25.27
2017-11-09T12:28:27.461Z,22.60
2017-11-09T12:30:55.091Z,22.80
2017-11-09T12:33:22.669Z,23.50
2017-11-09T12:35:50.284Z,22.33
2017-11-09T12:38:17.857Z,23.33
2017-11-09T12:40:45.454Z,23.73
2017-11-09T12:43:13.052Z,26.20
2017-11-09T12:45:40.656Z,23.93
2017-11-09T12:48:08.240Z,24.53
2017-11-09T12:50:35.919Z,24.00
2017-11-09T12:53:04.261Z,25.60
2017-11-09T12:55:31.856Z,24.80
2017-11-09T12:58:00.223Z,23.80
2017-11-09T13:00:27.850Z,25.20
2017-11-09T13:02:55.417Z,26.07
2017-11-09T13:05:23.019Z,25.50
2017-11-09T13:07:50.795Z,24.77
2017-11-09T13:10:19.155Z,25.83
2017-11-09T13:12:46.915Z,26.93
2017-11-09T13:15:14.510Z,26.93
2017-11-09T13:17:42.863Z,28.30
2017-11-09T13:20:10.460Z,25.80
2017-11-09T13:22:38.066Z,25.57
2017-11-09T13:25:05.694Z,24.93
2017-11-09T13:27:33.282Z,24.30
2017-11-09T13:30:00.879Z,25.50
2017-11-09T13:32:28.469Z,25.47
2017-11-09T13:34:56.092Z,25.77
2017-11-09T13:37:23.779Z,25.77
2017-11-09T13:39:52.112Z,25.57
2017-11-09T13:42:19.688Z,25.63
2017-11-09T13:44:47.285Z,22.83
2017-11-09T13:47:14.879Z,26.17
2017-11-09T13:49:43.303Z,24.07
2017-11-09T13:52:10.878Z,24.10
2017-11-09T13:54:39.231Z,25.30
2017-11-09T13:57:07.740Z,25.77
2017-11-09T13:59:36.119Z,26.17
2017-11-09T14:02:04.466Z,25.33
2017-11-09T14:04:32.100Z,24.57
2017-11-09T14:07:00.426Z,25.40
2017-11-09T14:09:28.776Z,28.27
2017-11-09T14:11:56.394Z,26.17
2017-11-09T14:14:24.733Z,27.20
2017-11-09T14:16:52.339Z,23.60
2017-11-09T14:19:20.034Z,27.20
2017-11-09T14:21:47.613Z,26.30
2017-11-09T14:24:15.232Z,25.47
2017-11-09T14:26:42.801Z,26.20
2017-11-09T14:29:25.388Z,28.33
2017-11-09T14:31:54.027Z,25.40
2017-11-09T14:34:21.639Z,25.40
2017-11-09T14:36:49.975Z,25.50
2017-11-09T14:39:17.535Z,26.50
2017-11-09T14:41:45.127Z,26.97
2017-11-09T14:44:13.490Z,27.03
2017-11-09T14:46:47.772Z,27.57
2017-11-09T14:49:15.386Z,27.43
2017-11-09T14:51:43.854Z,26.93
2017-11-09T14:54:11.426Z,27.37
2017-11-09T14:56:39.759Z,25.00
2017-11-09T14:59:07.343Z,26.10
2017-11-09T15:01:34.911Z,28.40
2017-11-09T15:04:02.967Z,28.50
2017-11-09T15:06:30.553Z,26.33
2017-11-09T15:08:58.916Z,26.17
2017-11-09T15:11:26.498Z,27.00
2017-11-09T15:13:54.874Z,27.13
2017-11-09T15:16:23.217Z,26.77
2017-11-09T15:18:50.832Z,26.47
2017-11-09T15:21:19.205Z,26.90
2017-11-09T15:23:46.771Z,25.30
2017-11-09T15:26:14.393Z,26.90
2017-11-09T15:28:41.969Z,27.30
2017-11-09T15:31:09.552Z,26.47
2017-11-09T15:33:37.885Z,24.20
2017-11-09T15:36:09.301Z,25.30
2017-11-09T15:38:36.880Z,26.23
2017-11-09T15:41:04.480Z,27.37
2017-11-09T15:43:32.056Z,26.60
2017-11-09T15:46:00.427Z,24.90
2017-11-09T15:48:28.001Z,25.80
2017-11-09T15:50:56.247Z,25.47
2017-11-09T15:53:23.847Z,25.00
2017-11-09T15:55:52.311Z,25.57
2017-11-09T15:58:20.686Z,25.60
2017-11-09T16:00:48.444Z,26.83
2017-11-09T16:03:16.083Z,25.10
2017-11-09T16:05:43.678Z,24.87
2017-11-09T16:08:12.022Z,26.00
2017-11-09T16:10:39.613Z,28.83
2017-11-09T16:13:07.237Z,27.80
2017-11-09T16:15:34.811Z,27.17
2017-11-09T16:18:02.416Z,27.00
2017-11-09T16:20:31.655Z,27.87
2017-11-09T16:22:59.227Z,30.10
2017-11-09T16:25:26.824Z,27.30
2017-11-09T16:27:54.379Z,28.87
2017-11-09T16:30:21.966Z,26.73
2017-11-09T16:32:50.304Z,27.77
2017-11-09T16:35:17.914Z,28.53
2017-11-09T16:37:45.481Z,27.77
2017-11-09T16:40:13.085Z,30.03
2017-11-09T16:42:43.470Z,31.37
2017-11-09T16:45:11.049Z,28.50
2017-11-09T16:47:38.655Z,27.20
2017-11-09T16:50:06.242Z,27.70
2017-11-09T16:52:33.856Z,29.60
2017-11-09T16:55:01.441Z,29.80
2017-11-09T16:57:29.994Z,28.87
2017-11-09T16:59:57.611Z,28.27
2017-11-09T17:02:25.197Z,29.10
2017-11-09T17:04:52.811Z,29.80
2017-11-09T17:07:25.069Z,27.83
2017-11-09T17:09:52.669Z,28.10
2017-11-09T17:12:20.259Z,29.87
2017-11-09T17:14:48.695Z,26.90
2017-11-09T17:17:17.060Z,27.50
2017-11-09T17:19:44.679Z,28.20
2017-11-09T17:22:16.022Z,29.80
2017-11-09T17:24:43.632Z,26.83
2017-11-09T17:27:11.257Z,29.00
2017-11-09T17:29:38.861Z,28.53
2017-11-09T17:32:07.224Z,27.37
2017-11-09T17:34:34.795Z,30.27
2017-11-09T17:37:03.186Z,28.70
2017-11-09T17:39:31.730Z,28.80
2017-11-09T17:42:06.265Z,30.10
2017-11-09T17:44:33.863Z,29.50
2017-11-09T17:47:02.232Z,27.93
2017-11-09T17:49:30.609Z,30.47
2017-11-09T17:51:58.182Z,27.70
2017-11-09T17:54:26.558Z,28.43
2017-11-09T17:56:54.969Z,29.20
2017-11-09T17:59:23.338Z,28.73
2017-11-09T18:01:50.942Z,29.77
2017-11-09T18:04:18.580Z,28.27
2017-11-09T18:06:46.173Z,27.90
2017-11-09T18:09:13.811Z,28.00
2017-11-09T18:11:41.407Z,28.17
2017-11-09T18:14:08.994Z,26.87
2017-11-09T18:16:37.469Z,27.77
2017-11-09T18:19:05.860Z,29.20
2017-11-09T18:21:33.720Z,28.27
2017-11-09T18:24:02.339Z,28.80
2017-11-09T18:26:30.763Z,25.87
2017-11-09T18:28:58.386Z,25.80
2017-11-09T18:31:25.982Z,27.37
2017-11-09T18:33:53.558Z,26.20
2017-11-09T18:36:22.198Z,27.50
2017-11-09T18:38:49.846Z,27.53
2017-11-09T18:41:17.430Z,27.43
2017-11-09T18:43:45.048Z,28.10
2017-11-09T18:46:13.418Z,28.70
2017-11-09T18:48:41.814Z,26.60
2017-11-09T18:51:09.394Z,27.07
2017-11-09T18:53:37.091Z,27.27
2017-11-09T18:56:04.701Z,28.30
2017-11-09T18:58:34.111Z,26.73
2017-11-09T19:01:01.738Z,27.27
2017-11-09T19:03:29.343Z,27.47
2017-11-09T19:05:59.292Z,26.23
2017-11-09T19:08:26.853Z,26.57
2017-11-09T19:10:54.424Z,26.97
2017-11-09T19:13:22.039Z,29.13
2017-11-09T19:15:49.620Z,26.43
2017-11-09T19:18:17.274Z,27.13
2017-11-09T19:20:44.844Z,27.90
2017-11-09T19:23:12.471Z,27.50
2017-11-09T19:25:40.085Z,26.60
2017-11-09T19:28:08.010Z,28.47
2017-11-09T19:30:35.643Z,27.20
2017-11-09T19:33:03.419Z,26.90
2017-11-09T19:35:31.767Z,28.90
2017-11-09T19:37:59.749Z,26.30
2017-11-09T19:40:27.332Z,28.40
2017-11-09T19:42:54.971Z,28.90
2017-11-09T19:45:22.585Z,26.87
2017-11-09T19:47:50.162Z,27.07
2017-11-09T19:50:17.761Z,27.33
2017-11-09T19:52:45.356Z,26.73
2017-11-09T19:55:12.972Z,26.63
2017-11-09T19:57:40.569Z,25.00
2017-11-09T20:00:08.235Z,28.20
2017-11-09T20:02:35.856Z,29.03
2017-11-09T20:05:03.501Z,27.40
2017-11-09T20:07:31.131Z,26.23
2017-11-09T20:10:06.367Z,27.43
2017-11-09T20:12:34.137Z,26.23
2017-11-09T20:15:01.817Z,25.13
2017-11-09T20:17:29.449Z,25.10
2017-11-09T20:19:57.110Z,25.87
2017-11-09T20:22:25.443Z,24.83
2017-11-09T20:24:53.074Z,25.30
2017-11-09T20:27:20.664Z,25.10
2017-11-09T20:29:48.295Z,25.80
2017-11-09T20:32:16.645Z,27.93
2017-11-09T20:44:30.201Z,23.63
2017-11-09T20:46:57.897Z,26.43
2017-11-09T20:49:25.567Z,25.53
2017-11-09T20:51:53.952Z,26.20
2017-11-09T20:54:22.424Z,25.77
2017-11-09T20:56:50.807Z,25.37
2017-11-09T20:59:19.245Z,23.93
2017-11-09T21:01:49.696Z,24.57
2017-11-09T21:04:17.303Z,26.40
2017-11-09T21:06:44.938Z,26.20
2017-11-09T21:09:13.381Z,24.60
2017-11-09T21:11:41.997Z,24.00
2017-11-09T21:14:10.400Z,25.87
2017-11-09T21:16:38.739Z,24.50
2017-11-09T21:19:06.326Z,24.90
2017-11-09T21:21:33.929Z,25.27
2017-11-09T21:24:01.644Z,23.60
2017-11-09T21:26:30.030Z,24.30
2017-11-09T21:28:58.421Z,23.67
2017-11-09T21:31:26.862Z,20.37
2017-11-09T21:33:54.471Z,25.23
2017-11-09T21:36:22.079Z,22.80
2017-11-09T21:38:49.652Z,22.40
2017-11-09T21:41:17.266Z,23.23
2017-11-09T21:43:44.868Z,24.20
2017-11-09T21:46:12.467Z,24.40
2017-11-09T21:48:40.815Z,21.73
2017-11-09T21:51:11.412Z,21.07
2017-11-09T21:53:38.991Z,21.83
2017-11-09T21:56:06.654Z,23.47
2017-11-09T21:58:34.246Z,23.43
2017-11-09T22:01:01.867Z,21.93
2017-11-09T22:03:29.569Z,22.33
2017-11-09T22:05:57.360Z,22.93
2017-11-09T22:08:25.728Z,23.70
2017-11-09T22:10:54.058Z,20.73
2017-11-09T22:13:21.695Z,21.30
2017-11-09T22:15:49.266Z,20.13
2017-11-09T22:18:17.087Z,22.10
2017-11-09T22:20:44.693Z,23.00
2017-11-09T22:23:12.295Z,21.00
2017-11-09T22:25:39.888Z,20.63
2017-11-09T22:28:08.231Z,21.60
2017-11-09T22:30:35.838Z,22.13
2017-11-09T22:33:03.400Z,22.23
2017-11-09T22:35:30.991Z,22.20
2017-11-09T22:37:58.582Z,21.07
2017-11-09T22:40:26.171Z,20.27
2017-11-09T22:42:54.554Z,19.20
2017-11-09T22:45:22.900Z,21.00
2017-11-09T22:47:50.491Z,19.50
2017-11-09T22:50:18.854Z,19.63
2017-11-09T22:52:49.403Z,18.70
2017-11-09T22:55:17.798Z,18.23
2017-11-09T22:57:45.372Z,17.93
2017-11-09T23:00:12.979Z,17.40
2017-11-09T23:02:40.821Z,17.03
2017-11-09T23:05:08.437Z,19.33
2017-11-09T23:07:36.781Z,18.87
2017-11-09T23:10:04.481Z,15.60
2017-11-09T23:12:32.830Z,18.23
2017-11-09T23:15:00.414Z,19.97
2017-11-09T23:17:28.779Z,17.27
2017-11-09T23:19:56.447Z,18.40
2017-11-09T23:22:24.060Z,18.20
2017-11-09T23:24:51.631Z,18.40
2017-11-09T23:27:19.238Z,18.53
2017-11-09T23:29:47.600Z,18.17
2017-11-09T23:32:15.204Z,18.77
2017-11-09T23:34:42.782Z,20.20
2017-11-09T23:37:10.373Z,18.03
2017-11-09T23:39:37.975Z,17.93
2017-11-09T23:42:06.323Z,17.87
2017-11-09T23:44:33.924Z,18.10
2017-11-09T23:47:01.519Z,16.67
2017-11-09T23:49:29.130Z,17.63
2017-11-09T23:51:57.492Z,16.47
2017-11-09T23:54:25.150Z,17.70
2017-11-09T23:56:52.762Z,17.60
2017-11-09T23:59:20.377Z,16.47
